Port Mouton, Canada
Current Conditions -  °F | °C
As of 4:00 PM on Sunday 25 Jan 2015 (Local Time) from CYQI Reporting Station
Broken Clouds Broken Clouds  
Wind Chill: 22°   Ceiling: 3000
Heat Index: 34°   Visibility: 15mi
Dew Point: 19°   Wind: 23mph
Humidity: 56%   Direction: 310°NW
Pressure: 29.48"   Gusts: 35mph
Location:  43.93°N, 64.85°W
Report Text: CYQI 252000Z 31020G30KT 15SM BKN030 01/M07 A2948 RMK SC5 SLP983
Loading
Personal Weather Stations






























Interactive Weather Map New forecast layout! Learn more

10-Day Weather Forecast

Advertisements
Track Severe Weather on mobile